Time;durP1;ratioP1;P1;durP2;ratioP2;P2;SDS_P1;SDS_P2;PMS_P1;PMS_P2;Temp;Humidity;BMP_temperature;BMP_pressure;BME280_temperature;BME280_humidity;BME280_pressure;Samples;Min_cycle;Max_cycle;Signal;HPM_P1;HPM_P2
2021/09/30 00:01:55;;;;;;;3.80;2.03;;;10.40;97.30;;;;;;5016071;28;20529;-85
2021/09/30 00:04:21;;;;;;;5.73;2.27;;;10.40;97.30;;;;;;5014257;28;20659;-83
2021/09/30 00:06:47;;;;;;;3.20;2.00;;;10.40;97.30;;;;;;5030306;28;20177;-83
2021/09/30 00:09:13;;;;;;;2.47;1.60;;;10.40;97.30;;;;;;5014946;28;20184;-83
2021/09/30 00:11:43;;;;;;;5.40;1.90;;;10.50;97.30;;;;;;5015104;28;20169;-82
2021/09/30 00:14:40;;;;;;;5.40;2.30;;;10.40;97.30;;;;;;5013267;28;20443;-84
2021/09/30 00:33:41;;;;;;;2.77;1.97;;;10.10;97.30;;;;;;5016662;28;20434;-83
2021/09/30 00:41:46;;;;;;;3.17;2.50;;;10.10;97.30;;;;;;5017289;28;20443;-82
2021/09/30 00:49:33;;;;;;;4.20;2.47;;;10.00;97.30;;;;;;5016502;28;20424;-83
2021/09/30 01:20:26;;;;;;;3.13;2.70;;;9.80;97.30;;;;;;5016318;28;20446;-84
2021/09/30 01:45:49;;;;;;;3.73;1.80;;;9.70;97.30;;;;;;5016586;28;20480;-82
2021/09/30 02:59:38;;;;;;;3.70;2.00;;;9.80;97.30;;;;;;4999578;28;20540;-84
2021/09/30 03:02:05;;;;;;;3.47;2.00;;;9.80;97.30;;;;;;5013001;28;20468;-85
2021/09/30 03:04:32;;;;;;;2.47;2.17;;;9.80;97.30;;;;;;4996408;28;20934;-85
2021/09/30 03:06:59;;;;;;;2.73;1.90;;;9.80;97.30;;;;;;4996457;28;20785;-84
2021/09/30 03:09:37;;;;;;;2.87;2.13;;;9.70;97.30;;;;;;4998286;28;20421;-84
2021/09/30 03:12:04;;;;;;;3.10;2.13;;;9.70;97.30;;;;;;4996994;28;20516;-85
2021/09/30 03:14:32;;;;;;;2.00;1.67;;;9.70;97.30;;;;;;4996961;28;20841;-85
2021/09/30 03:17:03;;;;;;;5.30;2.20;;;9.70;97.30;;;;;;4996175;28;20464;-85
2021/09/30 03:22:14;;;;;;;4.00;2.20;;;9.70;97.30;;;;;;4998021;28;20416;-85
2021/09/30 03:24:46;;;;;;;2.37;1.97;;;9.70;97.30;;;;;;4996773;28;20433;-84
2021/09/30 03:27:12;;;;;;;4.33;2.07;;;9.60;97.30;;;;;;4996283;28;20177;-84
2021/09/30 03:29:38;;;;;;;2.27;1.80;;;9.60;97.30;;;;;;5014147;28;20421;-84
2021/09/30 03:32:05;;;;;;;2.27;2.07;;;9.60;97.30;;;;;;4996879;28;20860;-83
2021/09/30 03:34:31;;;;;;;3.40;2.00;;;9.60;97.30;;;;;;4996963;28;20676;-85
2021/09/30 03:36:57;;;;;;;6.37;2.53;;;9.60;97.30;;;;;;4997397;28;20840;-85
2021/09/30 03:39:23;;;;;;;4.67;2.07;;;9.60;97.30;;;;;;4996436;28;20504;-85
2021/09/30 03:41:50;;;;;;;3.13;1.87;;;9.60;97.30;;;;;;4996557;28;20644;-83
2021/09/30 03:44:16;;;;;;;3.60;2.17;;;9.60;97.30;;;;;;4996618;28;20507;-84
2021/09/30 03:46:43;;;;;;;6.60;1.90;;;9.60;97.30;;;;;;4996272;28;20791;-82
2021/09/30 03:49:13;;;;;;;3.87;2.10;;;9.60;97.30;;;;;;4997490;28;20173;-84
2021/09/30 03:56:51;;;;;;;3.40;2.07;;;9.60;97.30;;;;;;4998002;28;20463;-83
2021/09/30 03:59:19;;;;;;;4.80;2.23;;;9.60;97.30;;;;;;4996807;28;20409;-82
2021/09/30 04:01:57;;;;;;;1.97;1.87;;;9.60;97.30;;;;;;4996841;28;20518;-82
2021/09/30 04:04:31;;;;;;;3.13;2.17;;;9.60;97.30;;;;;;4997764;28;20437;-84
2021/09/30 04:06:58;;;;;;;6.40;2.10;;;9.60;97.30;;;;;;4996862;28;20413;-83
2021/09/30 04:09:27;;;;;;;12.10;2.60;;;9.60;97.30;;;;;;4997227;28;20445;-82
2021/09/30 04:11:59;;;;;;;3.37;2.40;;;9.60;97.30;;;;;;4996750;28;20503;-82
2021/09/30 04:14:25;;;;;;;3.97;2.20;;;9.60;97.30;;;;;;4997602;28;20441;-84
2021/09/30 04:16:51;;;;;;;2.57;1.90;;;9.50;97.30;;;;;;4996894;28;20453;-83
2021/09/30 04:19:19;;;;;;;2.87;2.03;;;9.50;97.30;;;;;;4996793;28;20468;-83
2021/09/30 04:21:46;;;;;;;3.13;1.77;;;9.50;97.30;;;;;;4996569;28;20503;-83
2021/09/30 04:24:12;;;;;;;3.77;1.70;;;9.50;97.30;;;;;;5014834;28;20468;-83
2021/09/30 04:26:39;;;;;;;5.07;2.27;;;9.50;97.30;;;;;;5033361;28;20424;-83
2021/09/30 04:29:05;;;;;;;3.90;2.33;;;9.40;97.30;;;;;;5005411;28;20921;-82
2021/09/30 04:31:30;;;;;;;3.73;2.30;;;9.40;97.30;;;;;;5016643;28;20796;-83
2021/09/30 04:33:56;;;;;;;4.33;2.07;;;9.40;97.30;;;;;;5017531;28;20440;-83
2021/09/30 04:36:22;;;;;;;6.67;2.43;;;9.40;97.30;;;;;;5018113;28;20195;-84
2021/09/30 04:38:51;;;;;;;6.63;2.00;;;9.40;97.30;;;;;;5017573;28;20181;-83
2021/09/30 04:41:17;;;;;;;2.33;2.00;;;9.40;97.30;;;;;;5016070;28;20670;-85
2021/09/30 04:43:47;;;;;;;2.47;2.30;;;9.40;97.30;;;;;;5015508;28;20439;-85
2021/09/30 04:46:17;;;;;;;3.23;2.00;;;9.40;97.30;;;;;;5015654;28;20459;-84
2021/09/30 04:48:43;;;;;;;4.80;2.13;;;9.40;97.30;;;;;;5015738;28;20420;-83
2021/09/30 04:51:09;;;;;;;4.90;2.30;;;9.40;97.30;;;;;;5016090;28;20420;-83
2021/09/30 04:53:36;;;;;;;3.43;2.27;;;9.40;97.30;;;;;;5015285;28;20208;-83
2021/09/30 04:56:03;;;;;;;5.53;2.10;;;9.30;97.30;;;;;;5016705;28;20506;-83
2021/09/30 04:58:28;;;;;;;6.23;2.20;;;9.30;97.30;;;;;;5015416;28;20554;-84
2021/09/30 05:00:54;;;;;;;4.00;2.50;;;9.30;97.30;;;;;;5015611;28;20492;-84
2021/09/30 05:03:20;;;;;;;2.60;2.43;;;9.30;97.30;;;;;;5015132;28;20201;-88
2021/09/30 05:05:46;;;;;;;6.10;2.40;;;9.30;97.30;;;;;;5014460;28;20427;-83
2021/09/30 05:08:12;;;;;;;5.30;2.10;;;9.30;97.30;;;;;;5016584;28;20207;-83
2021/09/30 05:10:39;;;;;;;2.00;1.80;;;9.30;97.30;;;;;;5014143;28;20666;-84
2021/09/30 05:13:25;;;;;;;3.00;2.00;;;9.30;97.30;;;;;;4994624;28;20472;-84
2021/09/30 05:15:51;;;;;;;3.10;2.50;;;9.30;97.30;;;;;;4995735;28;20829;-84
2021/09/30 05:18:17;;;;;;;2.40;2.30;;;9.20;97.30;;;;;;4994586;28;20456;-84
2021/09/30 05:20:42;;;;;;;6.23;2.53;;;9.30;97.30;;;;;;4995068;28;20173;-83
2021/09/30 05:23:08;;;;;;;6.37;2.70;;;9.20;97.30;;;;;;4995653;28;20668;-84
2021/09/30 05:25:34;;;;;;;2.70;2.60;;;9.30;97.30;;;;;;4994336;28;20182;-86
2021/09/30 05:28:02;;;;;;;3.67;3.40;;;9.20;97.30;;;;;;4994385;28;20452;-83
2021/09/30 05:30:27;;;;;;;3.13;2.30;;;9.20;97.30;;;;;;4995474;28;20260;-83
2021/09/30 05:32:55;;;;;;;6.00;2.60;;;9.20;97.30;;;;;;4996478;28;20417;-85
2021/09/30 05:35:20;;;;;;;6.13;2.90;;;9.20;97.30;;;;;;4995807;28;20554;-84
2021/09/30 05:37:46;;;;;;;2.83;2.40;;;9.20;97.30;;;;;;4995492;28;20456;-83
2021/09/30 05:40:15;;;;;;;3.10;2.00;;;9.20;97.30;;;;;;4995705;28;20186;-84
2021/09/30 05:42:44;;;;;;;3.43;2.20;;;9.30;97.30;;;;;;4999622;28;20170;-85
2021/09/30 05:45:13;;;;;;;3.83;2.17;;;9.30;97.30;;;;;;5016123;28;20438;-84
2021/09/30 05:47:40;;;;;;;2.73;2.50;;;9.30;97.30;;;;;;5012489;28;21016;-79
2021/09/30 05:50:07;;;;;;;6.20;2.20;;;9.30;97.30;;;;;;5014917;28;20451;-77
2021/09/30 05:52:33;;;;;;;3.40;2.27;;;9.30;97.30;;;;;;5016763;28;20408;-78
2021/09/30 05:54:59;;;;;;;2.83;2.37;;;9.30;97.30;;;;;;4999135;28;20452;-79
2021/09/30 05:57:25;;;;;;;8.70;2.70;;;9.30;97.30;;;;;;4999067;28;20452;-78
2021/09/30 05:59:51;;;;;;;2.80;2.50;;;9.40;97.30;;;;;;4997707;28;20228;-80
2021/09/30 06:13:03;;;;;;;6.33;3.93;;;9.50;97.30;;;;;;5003095;28;20416;-83
2021/09/30 06:15:33;;;;;;;7.00;2.60;;;9.60;97.30;;;;;;5001073;28;20409;-84
2021/09/30 06:18:01;;;;;;;4.03;2.20;;;9.60;97.30;;;;;;5000544;28;20547;-82
2021/09/30 06:20:28;;;;;;;3.43;2.40;;;9.60;97.30;;;;;;5001727;28;20484;-81
2021/09/30 06:22:53;;;;;;;5.00;2.60;;;9.70;97.30;;;;;;5016199;28;20421;-82
2021/09/30 06:25:19;;;;;;;8.40;3.27;;;9.70;97.30;;;;;;5001685;28;20467;-81
2021/09/30 06:27:46;;;;;;;4.30;2.87;;;9.80;97.30;;;;;;5001805;28;20184;-81
2021/09/30 06:30:12;;;;;;;4.70;2.20;;;9.80;97.30;;;;;;5001860;28;20243;-83
2021/09/30 06:32:38;;;;;;;3.90;1.90;;;9.90;97.30;;;;;;5002044;28;20469;-82
2021/09/30 06:35:05;;;;;;;3.53;2.10;;;10.00;97.30;;;;;;5014285;28;20432;-82
2021/09/30 06:37:31;;;;;;;5.07;2.17;;;10.00;97.30;;;;;;5020861;28;20211;-82
2021/09/30 06:39:57;;;;;;;2.67;2.47;;;10.10;97.30;;;;;;5021863;28;20415;-81
2021/09/30 06:42:22;;;;;;;5.40;2.93;;;10.10;97.30;;;;;;5021701;28;20420;-82
2021/09/30 06:44:49;;;;;;;8.60;2.40;;;10.20;97.30;;;;;;5019591;28;20478;-82
2021/09/30 06:47:15;;;;;;;3.77;2.17;;;10.30;97.30;;;;;;5020700;28;20206;-82
2021/09/30 06:49:41;;;;;;;2.83;2.50;;;10.30;97.30;;;;;;5017021;28;20470;-80
2021/09/30 06:52:06;;;;;;;3.20;2.30;;;10.40;97.30;;;;;;5015922;28;20173;-79
2021/09/30 06:54:32;;;;;;;3.17;2.40;;;10.50;97.30;;;;;;5014380;28;20224;-79
2021/09/30 06:56:58;;;;;;;4.03;2.57;;;10.60;97.30;;;;;;5014809;28;20197;-81
2021/09/30 06:59:25;;;;;;;4.87;2.70;;;10.60;97.30;;;;;;5015477;28;20276;-79
2021/09/30 07:01:52;;;;;;;2.43;2.10;;;10.70;97.30;;;;;;5014735;28;20241;-82
2021/09/30 07:04:17;;;;;;;4.50;2.20;;;10.80;97.30;;;;;;5016949;28;20519;-80
2021/09/30 07:06:43;;;;;;;4.00;2.20;;;10.80;97.30;;;;;;5016498;28;20509;-80
2021/09/30 07:09:08;;;;;;;10.00;2.80;;;10.90;97.30;;;;;;5016311;28;20188;-81
2021/09/30 07:11:34;;;;;;;3.07;2.00;;;11.00;97.30;;;;;;5016124;28;20196;-81
2021/09/30 07:14:00;;;;;;;3.63;2.10;;;11.00;97.30;;;;;;5016793;28;20195;-79
2021/09/30 07:16:25;;;;;;;5.67;2.20;;;11.10;97.30;;;;;;5015233;28;20189;-80
2021/09/30 07:18:51;;;;;;;7.10;2.30;;;11.10;97.30;;;;;;5015835;28;20177;-80
2021/09/30 07:21:17;;;;;;;4.17;2.40;;;11.20;97.30;;;;;;5015610;28;20173;-81
2021/09/30 07:23:43;;;;;;;6.53;2.60;;;11.20;97.30;;;;;;5015745;28;20189;-81
2021/09/30 07:26:09;;;;;;;4.90;2.50;;;11.30;97.30;;;;;;5015557;28;20419;-81
2021/09/30 07:28:36;;;;;;;2.33;1.73;;;11.30;97.30;;;;;;5015474;28;20264;-83
2021/09/30 07:31:02;;;;;;;4.17;2.07;;;11.20;97.30;;;;;;5015673;28;20881;-81
2021/09/30 07:33:28;;;;;;;3.33;2.00;;;11.30;97.30;;;;;;5015812;28;20467;-80
2021/09/30 07:35:54;;;;;;;4.47;2.23;;;11.40;97.30;;;;;;5015314;28;20779;-79
2021/09/30 07:38:22;;;;;;;5.23;2.10;;;11.50;97.30;;;;;;5015208;28;20204;-81
2021/09/30 07:40:48;;;;;;;5.63;2.90;;;11.60;97.30;;;;;;5016049;28;20228;-82
2021/09/30 07:43:13;;;;;;;3.57;2.27;;;11.60;97.30;;;;;;5016520;28;20436;-80
2021/09/30 07:45:39;;;;;;;5.03;2.87;;;11.70;97.30;;;;;;5015473;28;20498;-81
2021/09/30 07:48:05;;;;;;;2.97;2.20;;;11.70;97.30;;;;;;5016543;28;20177;-81
2021/09/30 07:50:30;;;;;;;2.97;1.90;;;11.80;97.30;;;;;;5017117;28;20176;-81
2021/09/30 07:52:57;;;;;;;2.90;2.30;;;11.80;97.30;;;;;;5014998;28;20193;-79
2021/09/30 07:55:23;;;;;;;3.93;2.43;;;11.90;97.30;;;;;;5015331;28;20193;-81
2021/09/30 07:57:49;;;;;;;7.37;2.30;;;12.00;97.30;;;;;;5015375;28;20496;-81
2021/09/30 08:00:15;;;;;;;5.20;2.60;;;12.00;97.30;;;;;;5014991;28;20472;-81
2021/09/30 08:02:41;;;;;;;3.83;2.77;;;12.00;97.30;;;;;;5014867;28;20201;-85
2021/09/30 08:05:07;;;;;;;4.43;2.30;;;12.00;97.30;;;;;;5014756;28;20416;-80
2021/09/30 08:07:33;;;;;;;4.00;2.23;;;12.10;97.30;;;;;;5015665;28;20181;-81
2021/09/30 08:09:59;;;;;;;4.10;2.10;;;12.20;97.30;;;;;;5014630;28;20806;-83
2021/09/30 08:12:25;;;;;;;5.80;2.53;;;12.20;97.30;;;;;;5014600;28;20188;-82
2021/09/30 08:14:51;;;;;;;4.00;1.90;;;12.30;97.30;;;;;;5015076;28;20733;-80
2021/09/30 08:17:17;;;;;;;5.23;2.47;;;12.30;97.30;;;;;;5014994;28;20551;-79
2021/09/30 08:19:43;;;;;;;8.47;2.30;;;12.40;97.30;;;;;;5014715;28;20466;-80
2021/09/30 08:22:09;;;;;;;7.20;2.90;;;12.40;97.30;;;;;;5014841;28;20416;-80
2021/09/30 08:24:35;;;;;;;6.70;1.90;;;12.50;97.30;;;;;;5015198;28;20456;-81
2021/09/30 08:27:01;;;;;;;2.70;2.20;;;12.60;97.30;;;;;;5015007;28;20431;-82
2021/09/30 08:29:27;;;;;;;2.77;2.37;;;12.60;97.30;;;;;;5015531;28;20188;-81
2021/09/30 08:31:53;;;;;;;4.83;1.97;;;12.70;97.30;;;;;;5015165;28;20192;-79
2021/09/30 08:34:19;;;;;;;4.93;2.10;;;12.70;97.30;;;;;;5016405;28;20527;-78
2021/09/30 08:36:45;;;;;;;6.77;2.37;;;12.90;97.30;;;;;;5015120;28;20475;-81
2021/09/30 08:39:10;;;;;;;3.97;2.40;;;12.90;97.30;;;;;;5015113;28;20235;-80
2021/09/30 08:41:37;;;;;;;6.90;2.10;;;13.00;97.30;;;;;;5014871;28;20176;-81
2021/09/30 08:44:05;;;;;;;5.63;2.50;;;13.10;97.30;;;;;;5015184;28;20208;-80
2021/09/30 08:46:32;;;;;;;3.40;2.13;;;13.10;97.30;;;;;;5015588;28;20511;-81
2021/09/30 08:48:58;;;;;;;3.17;2.10;;;13.20;97.30;;;;;;5017443;28;20404;-80
2021/09/30 08:51:24;;;;;;;3.90;2.10;;;13.20;97.30;;;;;;5015721;28;20861;-79
2021/09/30 08:53:50;;;;;;;2.63;1.93;;;13.30;97.30;;;;;;5014577;28;20436;-82
2021/09/30 08:56:16;;;;;;;3.90;2.30;;;13.40;97.30;;;;;;5014504;28;20669;-80
2021/09/30 08:58:42;;;;;;;2.60;1.87;;;13.50;97.30;;;;;;5014307;28;20475;-81
2021/09/30 09:01:10;;;;;;;6.07;1.90;;;13.60;97.30;;;;;;5013987;28;20286;-81
2021/09/30 09:03:47;;;;;;;9.10;2.93;;;13.70;97.30;;;;;;5014046;28;20207;-81
2021/09/30 09:06:31;;;;;;;2.87;1.77;;;13.80;97.30;;;;;;5014903;28;20420;-79
2021/09/30 09:09:19;;;;;;;4.30;3.03;;;13.90;96.80;;;;;;5014374;28;20582;-80
2021/09/30 09:11:45;;;;;;;4.27;2.40;;;14.00;96.60;;;;;;5030753;28;20428;-80
2021/09/30 09:14:11;;;;;;;2.50;1.83;;;14.00;96.00;;;;;;5014245;28;20443;-80
2021/09/30 09:16:37;;;;;;;4.57;2.17;;;14.00;96.30;;;;;;5015089;28;20455;-80
2021/09/30 09:19:02;;;;;;;4.17;2.17;;;14.00;96.20;;;;;;5014081;28;20256;-81
2021/09/30 09:21:28;;;;;;;9.67;2.23;;;14.20;96.80;;;;;;5013872;28;20174;-83
2021/09/30 09:23:57;;;;;;;3.47;2.30;;;14.30;96.50;;;;;;5013286;28;20256;-81
2021/09/30 09:26:34;;;;;;;2.53;1.90;;;14.40;96.10;;;;;;5013784;28;20207;-84
2021/09/30 09:29:13;;;;;;;6.63;2.30;;;14.40;95.40;;;;;;5015882;28;20419;-84
2021/09/30 09:31:52;;;;;;;7.00;2.40;;;14.40;95.70;;;;;;5014522;28;20420;-82
2021/09/30 09:34:33;;;;;;;4.17;1.70;;;14.50;95.20;;;;;;5014696;28;20432;-81
2021/09/30 09:37:32;;;;;;;8.17;1.93;;;14.50;95.30;;;;;;5014426;28;20464;-82
2021/09/30 09:39:59;;;;;;;6.13;2.87;;;14.50;94.20;;;;;;5016684;28;20396;-80
2021/09/30 09:42:31;;;;;;;8.50;2.30;;;14.60;94.70;;;;;;5015054;28;20400;-81
2021/09/30 09:45:06;;;;;;;2.43;2.00;;;14.60;94.00;;;;;;5014555;28;20440;-79
2021/09/30 09:47:34;;;;;;;6.10;2.77;;;14.50;94.20;;;;;;5014784;28;20473;-80
2021/09/30 09:50:18;;;;;;;6.60;2.63;;;14.50;94.80;;;;;;5014050;28;20444;-80
2021/09/30 09:52:49;;;;;;;3.57;2.00;;;14.70;95.20;;;;;;5016362;28;20416;-81
2021/09/30 09:55:19;;;;;;;5.77;2.10;;;15.00;94.30;;;;;;5014802;28;20420;-80
2021/09/30 09:58:17;;;;;;;2.40;2.20;;;15.10;94.30;;;;;;5015077;28;20456;-81
2021/09/30 10:00:49;;;;;;;5.23;1.93;;;15.40;94.00;;;;;;4991152;28;21040;-82
2021/09/30 10:03:25;;;;;;;4.07;1.80;;;15.50;93.10;;;;;;5030206;28;20494;-82
2021/09/30 10:05:50;;;;;;;6.20;2.00;;;15.40;92.10;;;;;;5013929;28;20420;-82
2021/09/30 10:08:16;;;;;;;4.70;1.80;;;15.30;92.20;;;;;;5016162;28;20443;-83
2021/09/30 10:10:45;;;;;;;6.70;2.60;;;15.30;92.50;;;;;;5015299;28;20263;-78
2021/09/30 10:13:11;;;;;;;3.83;2.30;;;15.30;93.00;;;;;;5013297;28;20938;-85
2021/09/30 10:15:38;;;;;;;2.47;2.00;;;15.20;91.90;;;;;;5014527;28;20428;-80
2021/09/30 10:18:09;;;;;;;6.00;2.33;;;15.20;92.20;;;;;;5013976;28;20205;-79
2021/09/30 10:20:36;;;;;;;2.83;2.00;;;15.20;92.70;;;;;;5014502;28;20807;-82
2021/09/30 10:23:05;;;;;;;8.23;2.50;;;15.30;92.30;;;;;;5013219;28;20448;-80
2021/09/30 10:25:52;;;;;;;7.47;1.93;;;15.40;93.00;;;;;;5013610;28;20519;-82
2021/09/30 10:28:18;;;;;;;4.77;2.30;;;15.50;91.80;;;;;;5014229;28;20411;-81
2021/09/30 10:30:47;;;;;;;5.07;2.00;;;15.50;91.10;;;;;;5013397;28;20806;-81
2021/09/30 10:33:19;;;;;;;10.43;2.10;;;15.50;91.60;;;;;;5012889;28;20451;-80
2021/09/30 10:35:48;;;;;;;6.60;2.10;;;15.60;92.00;;;;;;5014631;28;20443;-81
2021/09/30 10:38:33;;;;;;;3.60;2.20;;;15.50;90.60;;;;;;5017244;28;20538;-81
2021/09/30 10:41:02;;;;;;;6.43;2.37;;;15.50;91.10;;;;;;5017107;28;20424;-81
2021/09/30 10:43:29;;;;;;;4.40;1.90;;;15.40;90.90;;;;;;5033944;28;20452;-80
2021/09/30 10:45:55;;;;;;;2.73;1.90;;;15.30;91.00;;;;;;5018342;28;20416;-81
2021/09/30 10:48:24;;;;;;;5.47;2.00;;;15.30;90.80;;;;;;5016995;28;21002;-81
2021/09/30 10:50:58;;;;;;;2.87;1.93;;;15.40;91.00;;;;;;5033207;28;20444;-79
2021/09/30 10:53:46;;;;;;;2.80;1.97;;;15.40;89.90;;;;;;5016295;28;20439;-79
2021/09/30 10:56:30;;;;;;;3.20;1.90;;;15.50;90.10;;;;;;5018033;28;20416;-81
2021/09/30 10:59:21;;;;;;;5.73;1.97;;;15.50;90.20;;;;;;5033126;28;20444;-83
2021/09/30 11:01:47;;;;;;;5.07;2.10;;;15.40;90.40;;;;;;5016240;28;20460;-80
2021/09/30 11:04:15;;;;;;;5.50;1.80;;;15.20;90.40;;;;;;5032611;28;20442;-82
2021/09/30 11:06:42;;;;;;;6.63;2.50;;;15.10;90.00;;;;;;5016779;28;20207;-81
2021/09/30 11:09:18;;;;;;;4.10;1.60;;;15.00;89.80;;;;;;5016570;28;20431;-80
2021/09/30 11:11:58;;;;;;;5.00;2.07;;;15.20;90.70;;;;;;5016848;28;20431;-82
2021/09/30 11:14:24;;;;;;;2.80;1.60;;;15.40;89.80;;;;;;5016245;28;20490;-81
2021/09/30 11:16:55;;;;;;;5.57;1.70;;;15.70;90.60;;;;;;5014885;28;20459;-81
2021/09/30 11:19:38;;;;;;;3.20;1.60;;;16.00;88.70;;;;;;5014435;28;20411;-78
2021/09/30 11:22:06;;;;;;;4.00;1.40;;;16.10;88.80;;;;;;5015361;28;20423;-82
2021/09/30 11:24:38;;;;;;;3.47;1.50;;;16.00;87.00;;;;;;5014791;28;20905;-81
2021/09/30 11:27:07;;;;;;;4.67;1.67;;;16.00;87.60;;;;;;5014642;28;20511;-79
2021/09/30 11:29:33;;;;;;;3.13;1.80;;;16.00;88.00;;;;;;5014202;28;20486;-79
2021/09/30 11:31:58;;;;;;;2.50;1.90;;;15.90;86.90;;;;;;5014900;28;20910;-79
2021/09/30 11:34:41;;;;;;;3.53;1.40;;;15.90;86.70;;;;;;5030950;28;20211;-79
2021/09/30 11:37:21;;;;;;;6.90;1.97;;;16.20;87.00;;;;;;5015625;28;20231;-77
2021/09/30 11:39:51;;;;;;;2.33;1.40;;;16.40;85.20;;;;;;5015603;28;20423;-81
2021/09/30 11:42:18;;;;;;;6.30;1.27;;;16.50;84.10;;;;;;5015148;28;20467;-80
2021/09/30 11:44:58;;;;;;;4.40;2.10;;;16.70;84.20;;;;;;5015113;28;20460;-82
2021/09/30 11:47:24;;;;;;;3.80;1.73;;;16.80;82.90;;;;;;5014117;28;20427;-79
2021/09/30 11:49:49;;;;;;;7.20;1.33;;;16.80;82.90;;;;;;5015308;28;20494;-81
2021/09/30 11:52:16;;;;;;;1.97;1.30;;;16.60;83.40;;;;;;5015246;28;20427;-78
2021/09/30 11:54:42;;;;;;;8.47;1.77;;;16.50;83.40;;;;;;5015224;28;20717;-79
2021/09/30 11:57:21;;;;;;;3.37;1.33;;;16.70;84.60;;;;;;5014107;28;20833;-79
2021/09/30 11:59:47;;;;;;;2.53;1.30;;;17.00;83.40;;;;;;5014118;28;20418;-80
2021/09/30 12:02:13;;;;;;;4.70;1.70;;;17.20;84.70;;;;;;5015802;28;21015;-82
2021/09/30 12:04:46;;;;;;;4.53;1.47;;;17.50;82.20;;;;;;5014667;28;20505;-85
2021/09/30 12:07:23;;;;;;;7.00;1.70;;;17.60;79.10;;;;;;5013419;28;20487;-79
2021/09/30 12:09:54;;;;;;;3.33;1.53;;;17.70;79.20;;;;;;5015678;28;20805;-82
2021/09/30 12:12:32;;;;;;;1.63;1.20;;;17.80;78.00;;;;;;5015114;28;20423;-81
2021/09/30 12:14:58;;;;;;;4.30;1.40;;;17.90;78.80;;;;;;5016452;28;20497;-82
2021/09/30 12:17:30;;;;;;;3.77;1.43;;;18.00;80.20;;;;;;5017977;28;20546;-79
2021/09/30 12:19:55;;;;;;;3.93;1.83;;;18.00;80.40;;;;;;5015086;28;20797;-79
2021/09/30 12:22:24;;;;;;;6.60;1.30;;;17.80;80.50;;;;;;4997792;28;20428;-81
2021/09/30 12:25:00;;;;;;;7.40;1.50;;;17.80;79.50;;;;;;4993848;28;20201;-79
2021/09/30 12:27:32;;;;;;;3.83;1.80;;;17.80;80.70;;;;;;4995515;28;20423;-79
2021/09/30 12:30:10;;;;;;;5.80;1.73;;;18.00;80.10;;;;;;4995751;28;20433;-81
2021/09/30 12:32:40;;;;;;;3.53;1.50;;;18.10;80.70;;;;;;5010992;28;20417;-80
2021/09/30 12:35:16;;;;;;;5.37;1.70;;;18.00;79.30;;;;;;4995916;28;20486;-80
2021/09/30 12:37:47;;;;;;;3.83;1.27;;;17.90;79.50;;;;;;4995213;28;20483;-82
2021/09/30 12:40:16;;;;;;;1.93;1.23;;;17.90;79.00;;;;;;4994652;28;20475;-79
2021/09/30 12:43:05;;;;;;;4.00;1.70;;;18.00;80.40;;;;;;4994044;28;20425;-81
2021/09/30 12:45:37;;;;;;;2.60;1.20;;;18.20;80.10;;;;;;4994854;28;20465;-82
2021/09/30 12:48:08;;;;;;;1.53;1.30;;;18.30;78.90;;;;;;4994770;28;20985;-80
2021/09/30 12:50:40;;;;;;;4.30;1.57;;;18.30;78.60;;;;;;4994342;28;20922;-79
2021/09/30 12:53:06;;;;;;;3.40;1.60;;;18.50;80.40;;;;;;4994184;28;20445;-80
2021/09/30 12:55:32;;;;;;;6.07;1.70;;;18.60;78.70;;;;;;4995055;28;20781;-80
2021/09/30 12:57:58;;;;;;;2.93;1.67;;;18.40;78.50;;;;;;4995251;28;20297;-80
2021/09/30 13:00:25;;;;;;;2.43;1.40;;;18.40;79.70;;;;;;4994663;28;20501;-79
2021/09/30 13:02:58;;;;;;;3.83;1.53;;;18.40;78.70;;;;;;4995078;28;20209;-80
2021/09/30 13:05:25;;;;;;;2.80;1.93;;;18.50;79.10;;;;;;4994111;28;20479;-83
2021/09/30 13:07:55;;;;;;;4.30;1.40;;;18.60;77.60;;;;;;4994047;28;20486;-80
2021/09/30 13:10:30;;;;;;;7.03;1.80;;;18.70;77.50;;;;;;4994618;28;20424;-79
2021/09/30 13:12:59;;;;;;;6.70;1.60;;;18.80;76.40;;;;;;4994445;28;20966;-78
2021/09/30 13:15:45;;;;;;;3.67;1.37;;;18.80;77.80;;;;;;4994902;28;20875;-80
2021/09/30 13:18:14;;;;;;;5.07;2.33;;;18.80;78.10;;;;;;4994721;28;20461;-82
2021/09/30 13:20:42;;;;;;;1.53;1.10;;;18.80;78.30;;;;;;4994157;28;20440;-77
2021/09/30 13:23:09;;;;;;;5.00;2.07;;;18.80;78.60;;;;;;4993980;28;20475;-80
2021/09/30 13:25:35;;;;;;;2.03;1.57;;;18.80;77.30;;;;;;4994663;28;20452;-80
2021/09/30 13:28:02;;;;;;;3.60;1.23;;;18.80;77.20;;;;;;4994549;28;20519;-79
2021/09/30 13:30:31;;;;;;;4.00;1.40;;;18.60;77.30;;;;;;4993532;28;20504;-80
2021/09/30 13:32:59;;;;;;;6.60;1.60;;;18.40;77.80;;;;;;4995082;28;20443;-81
2021/09/30 13:35:30;;;;;;;3.43;1.50;;;18.10;78.00;;;;;;4994461;28;20457;-83
2021/09/30 13:37:57;;;;;;;3.40;1.40;;;18.00;79.10;;;;;;4994468;28;20531;-80
2021/09/30 13:40:24;;;;;;;2.03;1.30;;;18.20;79.00;;;;;;4994435;28;21135;-81
2021/09/30 13:42:50;;;;;;;5.93;1.80;;;18.50;80.70;;;;;;4995269;28;20421;-81
2021/09/30 13:45:19;;;;;;;4.67;1.70;;;18.80;78.30;;;;;;4995508;28;20467;-80
2021/09/30 13:47:45;;;;;;;4.67;1.63;;;18.90;78.10;;;;;;4993974;28;20425;-82
2021/09/30 13:50:20;;;;;;;9.97;1.70;;;19.00;78.90;;;;;;4993731;28;20428;-79
2021/09/30 13:52:47;;;;;;;3.73;1.70;;;19.10;77.00;;;;;;4992982;28;20507;-80
2021/09/30 13:55:14;;;;;;;1.40;1.30;;;19.30;78.00;;;;;;4995626;28;20420;-79
2021/09/30 13:57:39;;;;;;;1.83;1.40;;;19.40;76.60;;;;;;4992400;28;20838;-78
2021/09/30 14:00:08;;;;;;;2.73;1.77;;;19.50;76.60;;;;;;4992766;28;20496;-81
2021/09/30 14:02:35;;;;;;;1.70;1.60;;;19.60;77.20;;;;;;4993317;28;20178;-80
2021/09/30 14:05:01;;;;;;;4.13;1.40;;;19.70;77.20;;;;;;4993363;28;20433;-80
2021/09/30 14:07:27;;;;;;;4.13;1.80;;;19.80;76.60;;;;;;4993559;28;20413;-80
2021/09/30 14:09:53;;;;;;;5.90;1.50;;;19.70;76.20;;;;;;4991700;28;20424;-79
2021/09/30 14:12:20;;;;;;;21.40;2.23;;;19.70;76.90;;;;;;4996420;28;20441;-79
2021/09/30 14:14:45;;;;;;;4.20;1.80;;;19.70;76.20;;;;;;4997301;28;21026;-80
2021/09/30 14:17:11;;;;;;;1.77;1.60;;;19.70;76.80;;;;;;4997610;28;20468;-81
2021/09/30 14:19:38;;;;;;;5.07;1.43;;;19.60;76.50;;;;;;4997328;28;20923;-78
2021/09/30 14:22:04;;;;;;;2.63;1.87;;;19.10;75.70;;;;;;4996941;28;20421;-80
2021/09/30 14:24:31;;;;;;;3.73;1.30;;;18.70;76.80;;;;;;4996812;28;20986;-81
2021/09/30 14:26:57;;;;;;;1.70;1.50;;;18.30;77.50;;;;;;4996077;28;20421;-79
2021/09/30 14:29:23;;;;;;;3.50;1.30;;;18.30;78.70;;;;;;4997951;28;20425;-79
2021/09/30 14:31:48;;;;;;;3.83;1.30;;;18.50;78.40;;;;;;4997106;28;20937;-80
2021/09/30 14:34:14;;;;;;;8.40;1.80;;;18.80;77.90;;;;;;4996841;28;20198;-82
2021/09/30 14:36:40;;;;;;;3.17;1.80;;;19.10;76.60;;;;;;4997061;28;20178;-79
2021/09/30 14:39:06;;;;;;;4.83;1.90;;;19.20;77.50;;;;;;4995841;28;20236;-82
2021/09/30 14:41:33;;;;;;;3.80;1.50;;;19.30;77.20;;;;;;4995783;28;20541;-79
2021/09/30 14:43:58;;;;;;;2.90;1.30;;;19.50;78.70;;;;;;4997548;28;20437;-78
2021/09/30 14:46:24;;;;;;;1.40;1.40;;;19.70;75.90;;;;;;4996410;28;20493;-78
2021/09/30 14:48:50;;;;;;;3.20;1.37;;;19.90;74.30;;;;;;4996281;28;20277;-79
2021/09/30 14:51:16;;;;;;;4.60;1.80;;;20.00;75.00;;;;;;4996103;28;20275;-77
2021/09/30 14:53:42;;;;;;;5.77;1.30;;;20.00;74.00;;;;;;4998086;28;20565;-83
2021/09/30 14:56:08;;;;;;;3.83;1.70;;;19.90;73.50;;;;;;4996345;28;20421;-80
2021/09/30 14:58:35;;;;;;;2.70;1.20;;;19.90;74.30;;;;;;4995689;28;20563;-80
2021/09/30 15:01:04;;;;;;;6.10;1.53;;;19.80;74.00;;;;;;4995543;28;20460;-80
2021/09/30 15:03:30;;;;;;;8.93;1.57;;;19.60;74.80;;;;;;4995399;28;21034;-81
2021/09/30 15:05:56;;;;;;;2.20;1.60;;;19.10;71.70;;;;;;4996834;28;20436;-81
2021/09/30 15:08:21;;;;;;;6.40;1.50;;;18.60;72.20;;;;;;4995711;28;20421;-80
2021/09/30 15:10:47;;;;;;;9.37;1.93;;;18.30;73.20;;;;;;4995929;28;20182;-79
2021/09/30 15:13:12;;;;;;;1.37;1.27;;;18.30;74.20;;;;;;4996244;28;20209;-77
2021/09/30 15:15:38;;;;;;;2.13;1.30;;;18.40;73.60;;;;;;4995572;28;20230;-79
2021/09/30 15:18:08;;;;;;;3.47;1.50;;;18.60;74.10;;;;;;4995595;28;20198;-81
2021/09/30 15:23:02;;;;;;;7.70;3.93;;;18.80;73.80;;;;;;4995558;28;20495;-79
2021/09/30 15:25:28;;;;;;;4.50;2.50;;;18.90;72.70;;;;;;4995493;28;20427;-81
2021/09/30 15:27:54;;;;;;;8.57;3.63;;;18.90;72.50;;;;;;4995509;28;20455;-80
2021/09/30 15:30:21;;;;;;;2.80;1.73;;;19.00;72.30;;;;;;4996252;28;20507;-80
2021/09/30 15:32:47;;;;;;;4.03;1.70;;;18.90;72.10;;;;;;4995351;28;20421;-80
2021/09/30 15:35:12;;;;;;;3.53;1.50;;;19.00;72.60;;;;;;4995457;28;20443;-85
2021/09/30 15:37:38;;;;;;;2.90;1.90;;;19.10;73.00;;;;;;4995427;28;20209;-80
2021/09/30 15:40:05;;;;;;;1.90;1.50;;;19.10;73.30;;;;;;4995372;28;20233;-81
2021/09/30 15:42:31;;;;;;;10.00;2.67;;;19.00;72.10;;;;;;4995020;28;20719;-82
2021/09/30 15:44:57;;;;;;;3.13;1.77;;;19.00;72.60;;;;;;4995718;28;20448;-80
2021/09/30 15:47:26;;;;;;;4.27;1.93;;;18.80;72.60;;;;;;4995810;28;20609;-80
2021/09/30 15:49:52;;;;;;;4.47;2.23;;;18.80;73.90;;;;;;4995309;28;20182;-79